Time;durP1;ratioP1;P1;durP2;ratioP2;P2;SDS_P1;SDS_P2;PMS_P1;PMS_P2;Temp;Humidity;BMP_temperature;BMP_pressure;BME280_temperature;BME280_humidity;BME280_pressure;Samples;Min_cycle;Max_cycle;Signal;HPM_P1;HPM_P2
2021/01/18 06:34:30;;;;;;;9.75;4.75;;;2.90;99.80;;;;;;5996405;23;20235;-77
2021/01/18 06:36:57;;;;;;;10.82;4.10;;;2.90;99.70;;;;;;4910347;29;20577;-80
2021/01/18 06:39:26;;;;;;;10.75;4.07;;;2.90;99.60;;;;;;4925682;29;20056;-80
2021/01/18 06:41:57;;;;;;;9.85;4.10;;;2.90;99.70;;;;;;4908816;29;20092;-80
2021/01/18 06:44:38;;;;;;;12.90;4.28;;;2.80;99.70;;;;;;4908208;29;20090;-80
2021/01/18 06:47:27;;;;;;;9.38;4.03;;;2.90;99.50;;;;;;4916136;29;20071;-81
2021/01/18 06:49:56;;;;;;;9.25;4.43;;;3.10;99.80;;;;;;4917120;29;20049;-80
2021/01/18 06:52:26;;;;;;;8.48;4.30;;;2.90;99.60;;;;;;4915276;29;20044;-80
2021/01/18 06:55:04;;;;;;;9.77;4.28;;;3.00;99.50;;;;;;4915850;29;20103;-81
2021/01/18 06:58:30;;;;;;;12.77;4.05;;;3.00;99.50;;;;;;4916403;29;20108;-81
2021/01/18 07:01:00;;;;;;;9.98;4.00;;;3.00;99.40;;;;;;4843567;29;20391;-81
2021/01/18 07:03:40;;;;;;;14.32;4.60;;;3.00;99.00;;;;;;4840952;29;20062;-78
2021/01/18 07:06:30;;;;;;;12.63;4.70;;;3.00;99.40;;;;;;4878575;29;20048;-79
2021/01/18 07:08:59;;;;;;;8.55;3.95;;;3.00;99.40;;;;;;4904479;29;20091;-79
2021/01/18 07:11:26;;;;;;;10.50;4.60;;;3.00;99.40;;;;;;4904507;29;20076;-80
2021/01/18 07:13:53;;;;;;;11.77;4.38;;;3.00;99.30;;;;;;4903705;29;20117;-79
2021/01/18 07:16:22;;;;;;;9.43;4.70;;;3.00;99.30;;;;;;4904575;29;20139;-80
2021/01/18 07:18:55;;;;;;;10.55;4.30;;;2.90;99.30;;;;;;4903263;29;20080;-79
2021/01/18 07:21:26;;;;;;;9.88;4.07;;;3.10;99.30;;;;;;4902996;29;20495;-80
2021/01/18 07:23:58;;;;;;;11.10;4.68;;;3.10;99.20;;;;;;4904506;29;20060;-80
2021/01/18 07:26:52;;;;;;;9.55;4.72;;;3.10;99.00;;;;;;4904118;29;20076;-80
2021/01/18 07:29:21;;;;;;;;;;;3.10;99.10;;;;;;4905801;29;20143;-79
2021/01/18 07:31:52;;;;;;;9.45;4.10;;;3.20;98.90;;;;;;4911636;29;19990;-79
2021/01/18 07:34:21;;;;;;;12.70;5.30;;;3.00;99.00;;;;;;4905606;29;20229;-79
2021/01/18 07:36:49;;;;;;;10.93;4.45;;;3.10;99.00;;;;;;4945261;29;20473;-79
2021/01/18 07:39:29;;;;;;;9.80;4.63;;;3.30;98.90;;;;;;4928367;29;20059;-80
2021/01/18 07:41:56;;;;;;;9.50;4.18;;;3.20;98.90;;;;;;4949095;29;20056;-79
2021/01/18 07:44:45;;;;;;;10.60;4.45;;;3.20;98.70;;;;;;4947074;29;20468;-78
2021/01/18 07:47:18;;;;;;;9.45;4.43;;;3.10;98.80;;;;;;4943761;29;20052;-79
2021/01/18 07:49:46;;;;;;;8.88;4.40;;;3.20;98.60;;;;;;4930164;29;20561;-79
2021/01/18 07:52:31;;;;;;;9.05;3.92;;;3.10;98.70;;;;;;4939091;29;20042;-79
2021/01/18 07:55:00;;;;;;;11.35;4.28;;;3.30;98.90;;;;;;4963318;29;20078;-80
2021/01/18 07:57:38;;;;;;;11.70;4.35;;;3.30;98.70;;;;;;4962029;29;20055;-79
2021/01/18 08:00:40;;;;;;;10.90;4.03;;;3.30;98.60;;;;;;4961202;29;20059;-79
2021/01/18 08:03:26;;;;;;;9.65;4.13;;;3.20;98.40;;;;;;4961473;29;20051;-79
2021/01/18 08:06:05;;;;;;;7.70;3.75;;;3.40;98.50;;;;;;4961496;29;20038;-80
2021/01/18 08:08:34;;;;;;;6.90;3.78;;;3.40;98.30;;;;;;4961324;29;20043;-79
2021/01/18 08:11:07;;;;;;;7.78;4.00;;;3.30;98.30;;;;;;4960471;29;20051;-80
2021/01/18 08:13:55;;;;;;;8.90;3.75;;;3.40;98.40;;;;;;4962265;29;20035;-78
2021/01/18 08:16:24;;;;;;;10.60;4.20;;;3.30;98.20;;;;;;4960312;29;20031;-79
2021/01/18 08:19:01;;;;;;;6.43;3.65;;;3.30;98.30;;;;;;4944274;29;20034;-79
2021/01/18 08:22:00;;;;;;;12.38;4.07;;;3.20;98.30;;;;;;4959171;29;20087;-79
2021/01/18 08:24:53;;;;;;;9.00;3.97;;;3.20;98.70;;;;;;4943350;29;20130;-80
2021/01/18 08:27:46;;;;;;;8.25;3.85;;;3.10;98.70;;;;;;4957547;29;20088;-79
2021/01/18 08:30:32;;;;;;;9.65;3.90;;;3.30;98.40;;;;;;4958463;29;20122;-79
2021/01/18 08:33:02;;;;;;;9.60;3.80;;;3.20;98.50;;;;;;4959753;29;20052;-79
2021/01/18 08:35:40;;;;;;;7.55;4.07;;;3.30;98.60;;;;;;4959141;29;20070;-79
2021/01/18 08:38:09;;;;;;;9.38;4.30;;;3.20;98.70;;;;;;4942440;29;20051;-79
2021/01/18 08:40:45;;;;;;;9.00;4.18;;;3.30;98.60;;;;;;4958665;29;20072;-79
2021/01/18 08:43:15;;;;;;;7.10;3.92;;;3.30;98.70;;;;;;4960745;29;20079;-80
2021/01/18 08:45:44;;;;;;;7.05;3.80;;;3.10;98.60;;;;;;4961260;29;20052;-80
2021/01/18 08:48:12;;;;;;;6.93;3.63;;;3.40;98.60;;;;;;4961002;29;20039;-80
2021/01/18 08:50:45;;;;;;;8.13;4.05;;;3.30;98.40;;;;;;4959776;29;20043;-80
2021/01/18 08:53:32;;;;;;;7.78;4.50;;;3.60;98.50;;;;;;4960365;29;20071;-79
2021/01/18 08:56:05;;;;;;;8.93;4.15;;;3.60;98.50;;;;;;4960496;29;20046;-80
2021/01/18 08:58:43;;;;;;;9.35;3.92;;;3.20;98.20;;;;;;4950987;29;20099;-79
2021/01/18 09:01:13;;;;;;;8.65;4.03;;;3.40;98.30;;;;;;4950396;29;20055;-79
2021/01/18 09:03:40;;;;;;;7.50;4.05;;;3.30;98.30;;;;;;4959011;29;20047;-79
2021/01/18 09:06:08;;;;;;;8.77;4.45;;;3.40;98.30;;;;;;4960584;29;20074;-80
2021/01/18 09:08:35;;;;;;;9.25;4.47;;;3.30;98.30;;;;;;4959257;29;20036;-79
2021/01/18 09:11:05;;;;;;;11.32;4.20;;;3.30;98.30;;;;;;4954435;29;20051;-80
2021/01/18 09:13:34;;;;;;;8.45;4.28;;;3.10;98.50;;;;;;4954651;29;20071;-80
2021/01/18 09:16:04;;;;;;;9.20;4.57;;;3.40;98.60;;;;;;4933363;29;20059;-79
2021/01/18 09:18:31;;;;;;;8.77;4.30;;;3.30;98.50;;;;;;4949463;29;20052;-79
2021/01/18 09:21:00;;;;;;;10.70;4.32;;;3.30;98.60;;;;;;4949133;29;20064;-79
2021/01/18 09:23:27;;;;;;;11.65;4.90;;;3.30;98.30;;;;;;4948768;29;20067;-79
2021/01/18 09:26:01;;;;;;;10.07;4.85;;;3.30;98.40;;;;;;4928364;29;20079;-79
2021/01/18 09:28:29;;;;;;;10.00;4.75;;;3.30;98.30;;;;;;4945193;29;20405;-79
2021/01/18 09:30:56;;;;;;;10.07;4.70;;;3.10;98.50;;;;;;4958358;29;20055;-80
2021/01/18 09:33:28;;;;;;;10.38;4.72;;;3.30;98.50;;;;;;4960860;29;20047;-80
2021/01/18 09:35:55;;;;;;;13.68;5.25;;;3.20;98.50;;;;;;4960872;29;20051;-79
2021/01/18 09:38:22;;;;;;;9.25;4.47;;;3.20;98.40;;;;;;4960663;29;20039;-82
2021/01/18 09:40:49;;;;;;;11.43;4.85;;;3.20;98.60;;;;;;4958412;29;20051;-80
2021/01/18 09:43:21;;;;;;;11.35;5.00;;;3.20;98.50;;;;;;4958055;29;20517;-80
2021/01/18 09:45:55;;;;;;;11.13;4.50;;;3.20;98.70;;;;;;4958304;29;20059;-80
2021/01/18 09:48:25;;;;;;;11.48;5.10;;;3.20;98.60;;;;;;4959454;29;20087;-80
2021/01/18 09:51:03;;;;;;;9.50;4.60;;;3.10;98.70;;;;;;4959772;29;20032;-81
2021/01/18 09:53:30;;;;;;;11.32;5.40;;;3.30;98.50;;;;;;4958802;29;20043;-80
2021/01/18 09:56:02;;;;;;;11.18;4.43;;;3.40;98.30;;;;;;4958503;29;20090;-81
2021/01/18 09:58:36;;;;;;;10.98;5.00;;;3.50;98.30;;;;;;4954833;29;20047;-80
2021/01/18 10:01:12;;;;;;;9.02;4.90;;;3.50;98.10;;;;;;4951857;29;20058;-80
2021/01/18 10:03:40;;;;;;;10.23;4.80;;;3.60;98.10;;;;;;4949308;29;20047;-80
2021/01/18 10:06:09;;;;;;;10.38;4.38;;;3.40;98.20;;;;;;4951584;29;20048;-80
2021/01/18 10:08:38;;;;;;;9.88;4.20;;;3.50;98.00;;;;;;4952821;29;20060;-80
2021/01/18 10:11:05;;;;;;;8.35;4.32;;;3.60;98.00;;;;;;4952854;29;20062;-80
2021/01/18 10:13:33;;;;;;;9.57;4.40;;;3.50;97.90;;;;;;4952671;29;20051;-80
2021/01/18 10:16:13;;;;;;;8.48;4.22;;;3.60;98.00;;;;;;4951480;29;20079;-79
2021/01/18 10:18:44;;;;;;;9.68;4.60;;;3.60;97.60;;;;;;4950815;29;20056;-80
2021/01/18 10:21:12;;;;;;;8.50;4.55;;;3.70;97.30;;;;;;4932643;29;20143;-80
2021/01/18 10:23:41;;;;;;;8.48;4.13;;;3.70;97.30;;;;;;4928739;29;20090;-80
2021/01/18 10:26:24;;;;;;;9.90;4.20;;;3.70;97.40;;;;;;4948920;29;20051;-79
2021/01/18 10:28:57;;;;;;;9.32;4.40;;;3.70;97.20;;;;;;4948347;29;20051;-79
2021/01/18 10:31:28;;;;;;;8.98;4.40;;;3.80;97.30;;;;;;4949069;29;20047;-79
2021/01/18 10:34:15;;;;;;;9.55;4.40;;;3.90;97.20;;;;;;4951696;29;20087;-79
2021/01/18 10:36:44;;;;;;;8.50;4.00;;;3.80;97.10;;;;;;4941651;29;20092;-80
2021/01/18 10:39:29;;;;;;;9.65;4.50;;;3.90;96.90;;;;;;4932808;29;20056;-79
2021/01/18 10:42:04;;;;;;;8.10;4.18;;;3.80;96.90;;;;;;4932443;29;20064;-80
2021/01/18 10:44:33;;;;;;;11.65;4.70;;;3.90;96.90;;;;;;4933067;29;20032;-81
2021/01/18 10:47:02;;;;;;;11.77;4.93;;;3.90;96.80;;;;;;4940937;29;20086;-81
2021/01/18 10:49:32;;;;;;;8.93;4.35;;;3.80;97.10;;;;;;4921499;29;20051;-81
2021/01/18 10:52:09;;;;;;;9.40;4.72;;;3.80;97.40;;;;;;4937122;29;20034;-79
2021/01/18 10:54:58;;;;;;;9.80;4.13;;;3.80;97.40;;;;;;4958862;29;20036;-80
2021/01/18 10:57:26;;;;;;;11.18;5.15;;;3.70;97.70;;;;;;4960430;29;20039;-80
2021/01/18 11:00:10;;;;;;;11.52;4.93;;;3.70;97.70;;;;;;4959092;29;20054;-80
2021/01/18 11:02:38;;;;;;;12.65;4.45;;;3.80;97.40;;;;;;4942308;29;20052;-80
2021/01/18 11:05:07;;;;;;;8.73;4.15;;;3.70;97.30;;;;;;4957115;29;20086;-80
2021/01/18 11:07:35;;;;;;;10.98;4.80;;;3.90;97.30;;;;;;4958558;29;20038;-80
2021/01/18 11:10:03;;;;;;;10.57;4.97;;;3.90;97.30;;;;;;4958405;29;20031;-79
2021/01/18 11:12:30;;;;;;;10.02;4.32;;;3.80;97.40;;;;;;4949305;29;20513;-79
2021/01/18 11:14:59;;;;;;;9.25;4.72;;;3.80;97.50;;;;;;4946955;29;20413;-79
2021/01/18 11:17:29;;;;;;;7.63;4.50;;;3.90;97.60;;;;;;4945755;29;20570;-79
2021/01/18 11:19:57;;;;;;;8.20;4.50;;;3.70;97.70;;;;;;4938114;29;20567;-79
2021/01/18 11:22:24;;;;;;;8.32;4.25;;;3.80;97.70;;;;;;4943759;29;20085;-79
2021/01/18 11:24:51;;;;;;;10.60;4.43;;;3.90;97.60;;;;;;4943780;29;20082;-79
2021/01/18 11:27:18;;;;;;;8.13;3.95;;;3.90;97.40;;;;;;4928670;29;20124;-79
2021/01/18 11:29:45;;;;;;;7.07;3.83;;;4.00;97.30;;;;;;4939482;29;20056;-80
2021/01/18 11:32:11;;;;;;;8.98;4.00;;;3.90;97.00;;;;;;4941100;29;20040;-80
2021/01/18 11:34:38;;;;;;;6.72;3.42;;;3.90;97.10;;;;;;4944675;29;20036;-80
2021/01/18 11:37:06;;;;;;;6.60;3.50;;;4.10;97.30;;;;;;4906553;29;20032;-79
2021/01/18 11:39:34;;;;;;;7.78;3.45;;;3.90;96.80;;;;;;4904633;29;20053;-80
2021/01/18 11:42:01;;;;;;;7.63;3.88;;;4.00;97.10;;;;;;4903302;29;20048;-79
2021/01/18 11:44:28;;;;;;;6.07;3.50;;;3.90;96.90;;;;;;4897631;29;20064;-80
2021/01/18 11:46:55;;;;;;;7.80;3.80;;;3.90;97.00;;;;;;4897241;29;20086;-80
2021/01/18 11:49:27;;;;;;;8.35;4.13;;;4.10;96.80;;;;;;4878617;29;20522;-79
2021/01/18 11:51:54;;;;;;;6.82;3.33;;;4.00;96.60;;;;;;4895126;29;20052;-81
2021/01/18 11:54:22;;;;;;;7.32;3.58;;;4.30;96.60;;;;;;4915173;29;20060;-81
2021/01/18 11:56:49;;;;;;;6.90;3.20;;;4.30;96.70;;;;;;4923094;29;20049;-80
2021/01/18 11:59:16;;;;;;;7.03;3.58;;;4.30;96.60;;;;;;4929628;29;20060;-80
2021/01/18 12:01:43;;;;;;;7.53;3.55;;;4.30;96.60;;;;;;4911464;29;20075;-80
2021/01/18 12:04:10;;;;;;;10.18;3.70;;;4.20;96.80;;;;;;4912156;29;20088;-80
2021/01/18 12:06:38;;;;;;;7.45;3.85;;;4.30;96.70;;;;;;4923055;29;20059;-79
2021/01/18 12:09:06;;;;;;;7.30;4.13;;;4.20;96.70;;;;;;4922230;29;20033;-79
2021/01/18 12:11:36;;;;;;;8.05;3.47;;;4.30;96.90;;;;;;4921315;29;20057;-78
2021/01/18 12:14:04;;;;;;;8.73;3.97;;;4.40;96.70;;;;;;4915490;29;20056;-80
2021/01/18 12:16:31;;;;;;;6.65;3.75;;;4.40;96.80;;;;;;4910191;29;20072;-78
2021/01/18 12:18:57;;;;;;;6.05;3.45;;;4.60;96.50;;;;;;4907634;29;20557;-79
2021/01/18 12:21:26;;;;;;;7.35;3.83;;;4.50;96.40;;;;;;4906719;29;20458;-81
2021/01/18 12:23:53;;;;;;;7.65;4.30;;;4.30;96.70;;;;;;4907631;29;20480;-79
2021/01/18 12:26:21;;;;;;;8.65;3.53;;;4.40;96.90;;;;;;4906991;29;20092;-79
2021/01/18 12:28:50;;;;;;;6.82;3.70;;;4.40;96.40;;;;;;4910905;29;20072;-80
2021/01/18 12:31:18;;;;;;;6.57;3.42;;;4.40;96.30;;;;;;4887411;29;20088;-80
2021/01/18 12:33:45;;;;;;;7.45;3.50;;;4.40;96.40;;;;;;4888783;29;20504;-79
2021/01/18 12:36:11;;;;;;;6.63;3.42;;;4.30;96.30;;;;;;4905818;29;20088;-78
2021/01/18 12:38:41;;;;;;;8.55;3.60;;;4.30;96.50;;;;;;4912990;29;20243;-79
2021/01/18 12:41:07;;;;;;;8.77;3.60;;;4.10;96.50;;;;;;4943756;29;20060;-80
2021/01/18 12:43:34;;;;;;;8.48;3.63;;;4.30;96.50;;;;;;4925005;29;20148;-79
2021/01/18 12:46:02;;;;;;;7.88;4.18;;;4.20;96.40;;;;;;4911805;29;20055;-79
2021/01/18 12:48:29;;;;;;;5.95;3.22;;;4.40;96.30;;;;;;4931567;29;20076;-80
2021/01/18 12:50:56;;;;;;;9.93;4.05;;;4.30;96.10;;;;;;4915367;29;20055;-80
2021/01/18 12:56:08;;;;;;;12.18;5.55;;;4.40;96.20;;;;;;4958310;29;20058;-79
2021/01/18 12:58:34;;;;;;;10.18;4.00;;;4.50;95.90;;;;;;4960459;28;20055;-78
2021/01/18 13:01:02;;;;;;;8.02;3.42;;;4.50;95.90;;;;;;4974204;29;20700;-80
2021/01/18 13:03:29;;;;;;;9.25;3.58;;;4.50;95.90;;;;;;4960715;29;20119;-80
2021/01/18 13:05:56;;;;;;;5.88;3.10;;;4.50;95.80;;;;;;4957032;29;20062;-80
2021/01/18 13:08:22;;;;;;;6.60;3.38;;;4.50;95.50;;;;;;4958941;29;20051;-79
2021/01/18 13:10:49;;;;;;;6.75;3.30;;;4.60;95.60;;;;;;4970223;29;20078;-79
2021/01/18 13:13:16;;;;;;;7.50;3.30;;;4.50;95.20;;;;;;4974065;29;20066;-80
2021/01/18 13:15:42;;;;;;;8.35;3.50;;;4.70;95.10;;;;;;4963915;28;20047;-79
2021/01/18 13:18:10;;;;;;;7.53;3.47;;;4.70;94.90;;;;;;4980721;28;20042;-80
2021/01/18 13:20:37;;;;;;;7.68;3.47;;;4.70;95.00;;;;;;4980022;28;20035;-78
2021/01/18 13:23:04;;;;;;;10.27;3.35;;;4.80;94.70;;;;;;4980459;28;20039;-79
2021/01/18 13:25:31;;;;;;;6.20;3.35;;;4.70;94.80;;;;;;4979800;29;20039;-80
2021/01/18 13:27:57;;;;;;;7.32;3.17;;;4.80;94.60;;;;;;4977686;29;20047;-79
2021/01/18 13:30:25;;;;;;;7.57;3.72;;;4.70;94.50;;;;;;4974560;29;20055;-79
2021/01/18 13:32:52;;;;;;;7.20;3.20;;;4.70;94.70;;;;;;4970253;29;20055;-79
2021/01/18 13:35:20;;;;;;;9.45;3.47;;;4.60;94.80;;;;;;4971660;29;20082;-79
2021/01/18 13:37:47;;;;;;;9.68;3.22;;;4.50;95.00;;;;;;4974010;28;20067;-79
2021/01/18 13:40:15;;;;;;;6.90;3.10;;;4.50;94.80;;;;;;4955696;29;20055;-79
2021/01/18 13:42:42;;;;;;;7.75;3.60;;;4.40;95.10;;;;;;4972368;29;20043;-79
2021/01/18 13:45:10;;;;;;;7.60;3.38;;;4.30;95.00;;;;;;4970022;29;20090;-81
2021/01/18 13:47:41;;;;;;;7.72;3.30;;;4.60;94.70;;;;;;4969061;29;20076;-80
2021/01/18 13:50:09;;;;;;;9.02;3.47;;;4.50;94.70;;;;;;4965866;29;20059;-80
2021/01/18 13:52:37;;;;;;;6.15;2.88;;;4.40;94.60;;;;;;4967236;29;20408;-80
2021/01/18 13:55:05;;;;;;;5.35;2.95;;;4.50;94.50;;;;;;4949348;29;20057;-80
2021/01/18 13:57:32;;;;;;;6.53;2.92;;;4.50;94.70;;;;;;4963795;29;20048;-79
2021/01/18 13:59:59;;;;;;;6.63;2.80;;;4.50;94.50;;;;;;4945787;29;20119;-79
2021/01/18 14:02:26;;;;;;;5.18;2.58;;;4.60;94.40;;;;;;4949323;29;20044;-80
2021/01/18 14:04:53;;;;;;;6.60;3.03;;;4.60;94.40;;;;;;4927059;29;20027;-79
2021/01/18 14:07:20;;;;;;;10.85;3.95;;;4.60;94.30;;;;;;4960301;29;20030;-80
2021/01/18 14:09:47;;;;;;;11.13;5.43;;;4.50;94.20;;;;;;4961134;29;20036;-80
2021/01/18 14:12:14;;;;;;;17.75;7.05;;;4.50;94.40;;;;;;4958918;29;20040;-80
2021/01/18 14:14:41;;;;;;;7.80;3.60;;;4.50;94.50;;;;;;4932447;29;20079;-79
2021/01/18 14:17:08;;;;;;;6.47;2.97;;;4.60;94.10;;;;;;4953436;29;20051;-80
2021/01/18 14:19:35;;;;;;;7.95;3.13;;;4.50;94.40;;;;;;4955107;29;20079;-80
2021/01/18 14:22:02;;;;;;;8.25;2.75;;;4.40;94.70;;;;;;4952814;29;20074;-80
2021/01/18 14:24:29;;;;;;;9.18;3.03;;;4.40;94.40;;;;;;4947369;29;20056;-81
2021/01/18 14:27:00;;;;;;;6.03;2.72;;;4.40;94.30;;;;;;4969751;28;20397;-80
2021/01/18 14:29:28;;;;;;;6.50;2.83;;;4.40;94.40;;;;;;4966697;29;20082;-80
2021/01/18 14:31:54;;;;;;;6.28;2.97;;;4.50;94.20;;;;;;4947294;29;20071;-80
2021/01/18 14:34:21;;;;;;;6.18;2.92;;;4.50;94.30;;;;;;4930141;29;20087;-80
2021/01/18 14:36:49;;;;;;;8.43;2.60;;;4.30;94.40;;;;;;4946885;29;20051;-80
2021/01/18 14:39:16;;;;;;;8.20;2.97;;;4.60;94.20;;;;;;4951672;29;20075;-80
2021/01/18 14:41:43;;;;;;;7.80;3.00;;;4.60;94.10;;;;;;4959438;29;20043;-81
2021/01/18 14:44:11;;;;;;;6.65;2.78;;;4.40;94.30;;;;;;4957744;29;20103;-80
2021/01/18 14:46:38;;;;;;;7.78;3.10;;;4.40;94.10;;;;;;4954258;29;20052;-79
2021/01/18 14:49:04;;;;;;;8.40;2.88;;;4.40;94.50;;;;;;4948236;29;20064;-80
2021/01/18 14:51:33;;;;;;;6.07;2.78;;;4.40;94.40;;;;;;4931220;29;20075;-79
2021/01/18 14:54:00;;;;;;;7.50;2.67;;;4.50;94.40;;;;;;4929371;29;20054;-80
2021/01/18 14:56:30;;;;;;;10.32;2.53;;;4.30;94.40;;;;;;4945747;29;20055;-80
2021/01/18 14:58:57;;;;;;;7.90;3.08;;;4.50;94.40;;;;;;4942290;29;20466;-79
2021/01/18 15:01:27;;;;;;;5.32;2.28;;;4.50;94.10;;;;;;4926604;29;20094;-79
2021/01/18 15:03:55;;;;;;;8.23;2.80;;;4.40;94.30;;;;;;4911374;29;20056;-79
2021/01/18 15:06:23;;;;;;;9.02;2.70;;;4.40;94.40;;;;;;4927376;29;20059;-79
2021/01/18 15:08:51;;;;;;;6.35;2.83;;;4.30;94.50;;;;;;4930252;29;20402;-81
2021/01/18 15:11:19;;;;;;;6.50;2.80;;;4.30;94.60;;;;;;4929279;29;20067;-81
2021/01/18 15:13:46;;;;;;;6.75;2.90;;;4.30;94.50;;;;;;4928747;29;20059;-81
2021/01/18 15:16:13;;;;;;;6.82;2.80;;;4.30;94.50;;;;;;4928772;29;20055;-81
2021/01/18 15:18:41;;;;;;;6.32;2.63;;;4.50;94.60;;;;;;4928339;29;20108;-80
2021/01/18 15:21:09;;;;;;;6.25;2.55;;;4.40;94.40;;;;;;4911110;29;20081;-80
2021/01/18 15:23:36;;;;;;;7.75;2.95;;;4.40;94.30;;;;;;4926363;29;20048;-81
2021/01/18 15:26:06;;;;;;;5.45;2.42;;;4.40;94.30;;;;;;4938726;29;20071;-80
2021/01/18 15:28:33;;;;;;;6.03;2.60;;;4.30;94.30;;;;;;4947632;29;20055;-79
2021/01/18 15:31:00;;;;;;;6.75;2.50;;;4.50;94.30;;;;;;4945854;29;20055;-80
2021/01/18 15:33:27;;;;;;;6.07;2.90;;;4.30;94.30;;;;;;4945286;29;20490;-80
2021/01/18 15:36:08;;;;;;;8.20;2.80;;;4.30;94.20;;;;;;4916253;29;20059;-80
2021/01/18 15:38:35;;;;;;;7.90;2.58;;;4.30;94.20;;;;;;4951615;29;20059;-78
2021/01/18 15:41:03;;;;;;;5.35;2.50;;;4.10;94.20;;;;;;4954925;29;20035;-81
2021/01/18 15:43:30;;;;;;;8.77;3.00;;;4.30;94.40;;;;;;4958816;29;20036;-79
2021/01/18 15:45:57;;;;;;;5.00;2.53;;;4.20;94.20;;;;;;4959999;29;20056;-81
2021/01/18 15:48:23;;;;;;;6.13;2.53;;;4.00;94.30;;;;;;4959105;29;20052;-81
2021/01/18 15:50:51;;;;;;;7.13;3.00;;;4.10;94.30;;;;;;4968871;29;20409;-81
2021/01/18 15:53:20;;;;;;;5.50;2.55;;;4.00;94.40;;;;;;4961534;29;20066;-81
2021/01/18 15:55:47;;;;;;;10.27;2.88;;;3.90;94.40;;;;;;4945886;29;20095;-81
2021/01/18 15:58:16;;;;;;;5.30;2.70;;;3.90;94.40;;;;;;4978775;29;20057;-81
2021/01/18 16:00:43;;;;;;;6.13;2.95;;;3.90;94.60;;;;;;4978561;28;20046;-82
2021/01/18 16:03:10;;;;;;;6.15;2.72;;;4.00;94.40;;;;;;4966571;28;20824;-80
2021/01/18 16:05:38;;;;;;;5.38;2.70;;;3.90;94.20;;;;;;4982377;28;20038;-81
2021/01/18 16:08:10;;;;;;;6.07;2.63;;;4.00;93.90;;;;;;4959708;29;20035;-79
2021/01/18 16:10:39;;;;;;;7.10;2.80;;;4.00;94.10;;;;;;4959529;29;20032;-82
2021/01/18 16:42:06;;;;;;;6.28;3.25;;;4.00;93.90;;;;;;5018772;28;20073;-82
2021/01/18 16:44:41;;;;;;;7.50;3.10;;;4.00;93.90;;;;;;5020703;28;20031;-82
2021/01/18 17:00:10;;;;;;;8.20;3.47;;;3.80;94.40;;;;;;5005722;23;20037;-81
2021/01/18 17:02:38;;;;;;;7.07;2.97;;;3.80;94.50;;;;;;4983643;28;20034;-83
2021/01/18 17:05:10;;;;;;;6.13;3.50;;;3.90;94.50;;;;;;4999086;28;20106;-82
2021/01/18 17:07:38;;;;;;;7.32;3.45;;;4.00;94.50;;;;;;4999944;28;20031;-82
2021/01/18 17:17:52;;;;;;;6.28;3.00;;;3.80;94.50;;;;;;5206164;23;20095;-84
2021/01/18 17:20:21;;;;;;;7.13;3.15;;;4.00;94.60;;;;;;5019477;28;20054;-82
2021/01/18 17:22:49;;;;;;;7.13;3.45;;;3.60;94.70;;;;;;5020020;28;20034;-83
2021/01/18 17:25:16;;;;;;;7.93;3.33;;;3.60;94.80;;;;;;5019459;28;20071;-82
2021/01/18 17:27:44;;;;;;;6.88;3.53;;;3.80;95.00;;;;;;5019441;28;20077;-82
2021/01/18 17:30:13;;;;;;;8.50;3.90;;;3.70;95.10;;;;;;5000205;28;20030;-83
2021/01/18 17:32:45;;;;;;;7.88;4.05;;;3.70;95.20;;;;;;4984083;28;20026;-83
2021/01/18 17:35:15;;;;;;;8.02;4.00;;;3.60;95.10;;;;;;5000343;28;20035;-82
2021/01/18 17:37:43;;;;;;;7.10;3.58;;;3.60;95.20;;;;;;4999893;28;20119;-82
2021/01/18 17:40:13;;;;;;;9.40;3.95;;;3.80;95.20;;;;;;4999245;28;20098;-83
2021/01/18 17:42:40;;;;;;;8.00;3.50;;;3.60;95.20;;;;;;4981455;28;20046;-82
2021/01/18 17:45:09;;;;;;;8.23;4.25;;;3.60;95.20;;;;;;4996528;28;20089;-82
2021/01/18 17:47:42;;;;;;;8.27;4.20;;;3.60;95.00;;;;;;4992502;28;20054;-83
2021/01/18 17:50:12;;;;;;;8.93;3.92;;;3.60;95.10;;;;;;4964369;28;20042;-84
2021/01/18 17:52:41;;;;;;;7.50;3.80;;;3.60;95.10;;;;;;4997383;28;20038;-83
2021/01/18 17:55:09;;;;;;;7.60;3.70;;;3.50;95.00;;;;;;4987721;28;20050;-83
2021/01/18 17:57:37;;;;;;;7.63;4.13;;;3.60;94.90;;;;;;4997711;28;20058;-82
2021/01/18 18:00:07;;;;;;;12.52;6.25;;;3.70;94.80;;;;;;4990799;28;20057;-83
2021/01/18 18:02:34;;;;;;;27.35;12.52;;;3.60;94.50;;;;;;4999554;28;20035;-84
2021/01/18 18:05:01;;;;;;;8.18;4.03;;;3.60;94.40;;;;;;5018388;28;20030;-83
2021/01/18 18:07:35;;;;;;;9.00;4.45;;;3.60;94.40;;;;;;5009489;28;20094;-82
2021/01/18 18:10:07;;;;;;;9.73;3.85;;;3.50;94.80;;;;;;4981857;28;20027;-80
2021/01/18 18:12:35;;;;;;;10.40;4.78;;;3.50;94.40;;;;;;5010060;28;20030;-83
2021/01/18 18:15:02;;;;;;;8.68;3.42;;;3.40;94.70;;;;;;5012043;28;20064;-82
2021/01/18 18:17:29;;;;;;;9.70;3.83;;;3.60;94.40;;;;;;5007619;28;20054;-82
2021/01/18 18:19:58;;;;;;;6.65;3.33;;;3.50;94.20;;;;;;4989553;28;20063;-83
2021/01/18 18:22:31;;;;;;;7.07;3.60;;;3.40;93.90;;;;;;4975516;28;20481;-84
2021/01/18 18:24:58;;;;;;;8.23;4.03;;;3.40;93.80;;;;;;5731057;23;20059;-81
2021/01/18 18:27:25;;;;;;;7.30;3.15;;;3.50;93.60;;;;;;5005669;23;20061;-83
2021/01/18 18:53:12;;;;;;;9.20;3.30;;;3.50;94.10;;;;;;5304383;23;20062;-81
2021/01/18 18:55:39;;;;;;;7.22;3.20;;;3.40;94.10;;;;;;4996577;28;20047;-83
2021/01/18 18:58:07;;;;;;;7.70;3.33;;;3.40;94.20;;;;;;4974293;28;20039;-82
2021/01/18 19:00:35;;;;;;;6.78;3.17;;;3.50;94.10;;;;;;4965244;29;20031;-82
2021/01/18 19:03:10;;;;;;;9.90;4.90;;;3.40;94.20;;;;;;4962563;28;20035;-82
2021/01/18 19:05:37;;;;;;;11.50;5.10;;;3.20;94.10;;;;;;4967965;28;20054;-80
2021/01/18 19:08:09;;;;;;;7.20;3.47;;;3.10;94.20;;;;;;5164429;23;20038;-83
2021/01/18 19:13:15;;;;;;;7.30;3.85;;;3.20;94.30;;;;;;5469370;23;20095;-82
2021/01/18 19:15:46;;;;;;;9.23;3.80;;;3.10;94.40;;;;;;5000874;28;20078;-81
2021/01/18 19:18:14;;;;;;;6.97;3.60;;;3.10;94.30;;;;;;5084914;23;20052;-80
2021/01/18 19:20:40;;;;;;;7.47;3.33;;;3.20;94.50;;;;;;4981837;28;20055;-79
2021/01/18 19:23:08;;;;;;;6.90;3.58;;;3.20;94.10;;;;;;4979067;28;20133;-80
2021/01/18 19:25:34;;;;;;;6.32;3.30;;;3.20;94.10;;;;;;4952806;28;20061;-78
2021/01/18 19:28:01;;;;;;;8.00;3.45;;;3.20;94.20;;;;;;4949487;29;20111;-79
2021/01/18 19:30:29;;;;;;;6.55;3.45;;;3.20;94.20;;;;;;4973974;28;20047;-79
2021/01/18 19:32:55;;;;;;;7.15;3.60;;;3.10;94.20;;;;;;4973485;28;20043;-80
2021/01/18 19:35:22;;;;;;;9.25;3.50;;;3.20;94.10;;;;;;4953216;28;20051;-80
2021/01/18 19:37:49;;;;;;;8.75;3.45;;;3.20;94.00;;;;;;4967704;28;20051;-78
2021/01/18 19:40:16;;;;;;;7.68;3.80;;;3.20;93.90;;;;;;4994593;28;20090;-86
2021/01/18 19:47:56;;;;;;;6.40;3.30;;;3.20;93.90;;;;;;5334278;23;20042;-81
2021/01/18 19:50:23;;;;;;;7.15;3.65;;;3.20;93.60;;;;;;4992537;28;20073;-81
2021/01/18 21:17:02;;;;;;;6.60;3.00;;;2.80;92.60;;;;;;4905063;27;20304;-80
2021/01/18 21:19:28;;;;;;;7.28;2.75;;;2.80;92.50;;;;;;4925946;29;20056;-79
2021/01/18 21:21:55;;;;;;;6.07;3.40;;;2.80;92.60;;;;;;4928021;29;20068;-83
2021/01/18 21:24:21;;;;;;;31.30;12.93;;;2.90;92.50;;;;;;4933011;29;20076;-82
2021/01/18 21:26:48;;;;;;;7.10;3.08;;;2.90;92.50;;;;;;4927162;29;20447;-82
2021/01/18 21:29:15;;;;;;;5.90;2.90;;;2.70;92.60;;;;;;4928470;29;20052;-83
2021/01/18 21:31:45;;;;;;;6.57;2.83;;;2.80;92.70;;;;;;4923001;29;20047;-83
2021/01/18 21:34:12;;;;;;;6.82;3.13;;;2.70;92.60;;;;;;4940060;28;20040;-82
2021/01/18 21:36:39;;;;;;;7.25;2.80;;;2.80;92.40;;;;;;4908401;29;20078;-82
2021/01/18 21:39:07;;;;;;;9.77;4.20;;;2.80;92.30;;;;;;4917178;29;20088;-82
2021/01/18 21:41:34;;;;;;;6.95;2.80;;;2.80;92.30;;;;;;4921532;29;20082;-82
2021/01/18 21:44:01;;;;;;;5.07;2.50;;;2.80;92.10;;;;;;4937488;29;20087;-83
2021/01/18 21:46:28;;;;;;;5.32;2.53;;;3.00;92.00;;;;;;4937310;29;20080;-82
2021/01/18 21:48:57;;;;;;;6.70;2.30;;;3.00;92.10;;;;;;4905045;29;20071;-82
2021/01/18 21:51:25;;;;;;;7.38;2.40;;;3.10;91.90;;;;;;4939208;29;20074;-82
2021/01/18 21:53:52;;;;;;;5.30;2.17;;;3.10;91.70;;;;;;4938454;29;20059;-82
2021/01/18 21:56:26;;;;;;;5.85;2.40;;;3.10;91.60;;;;;;4936186;29;20035;-82
2021/01/18 21:58:53;;;;;;;6.30;2.20;;;3.00;91.50;;;;;;4911557;29;20075;-80
2021/01/18 22:01:21;;;;;;;4.18;2.08;;;3.00;91.50;;;;;;4931325;29;20060;-82
2021/01/18 22:03:47;;;;;;;4.32;2.00;;;3.10;91.60;;;;;;4931429;29;20052;-81
2021/01/18 22:06:14;;;;;;;4.40;2.00;;;3.10;91.50;;;;;;4927156;29;20087;-81
2021/01/18 22:08:42;;;;;;;5.20;2.13;;;3.10;91.50;;;;;;4910395;29;20532;-81
2021/01/18 22:11:08;;;;;;;4.85;2.20;;;3.10;91.50;;;;;;4923110;29;20146;-81
2021/01/18 22:13:35;;;;;;;5.05;1.90;;;3.00;91.60;;;;;;4914156;29;20139;-82
2021/01/18 22:16:02;;;;;;;4.13;1.95;;;3.00;91.60;;;;;;4928422;29;20111;-82
2021/01/18 22:18:29;;;;;;;18.25;7.18;;;3.00;91.70;;;;;;4929176;29;20202;-81
2021/01/18 22:20:56;;;;;;;6.53;2.67;;;2.90;91.60;;;;;;4914514;29;20084;-81
2021/01/18 22:23:23;;;;;;;5.80;2.25;;;2.90;91.80;;;;;;4930783;29;20083;-81
2021/01/18 22:25:50;;;;;;;5.78;2.30;;;2.80;91.80;;;;;;4932226;29;20080;-81
2021/01/18 22:28:17;;;;;;;4.90;2.30;;;2.80;91.90;;;;;;4925528;29;20048;-81
2021/01/18 22:30:44;;;;;;;4.18;2.33;;;2.70;92.00;;;;;;4906012;29;20131;-81